Time;durP1;ratioP1;P1;durP2;ratioP2;P2;SDS_P1;SDS_P2;PMS_P1;PMS_P2;Temp;Humidity;BMP_temperature;BMP_pressure;BME280_temperature;BME280_humidity;BME280_pressure;Samples;Min_cycle;Max_cycle;Signal;HPM_P1;HPM_P2
2023/02/18 00:01:30;;;;;;;29.92;7.53;;;10.70;83.80;;;;;;9182344;19;20010;-67
2023/02/18 00:04:34;;;;;;;22.83;6.97;;;10.60;83.70;;;;;;9181248;19;20021;-67
2023/02/18 00:07:41;;;;;;;29.15;6.10;;;10.60;83.80;;;;;;9181711;19;20010;-66
2023/02/18 00:10:48;;;;;;;24.73;7.18;;;10.60;83.80;;;;;;9180770;19;20690;-65
2023/02/18 00:13:55;;;;;;;31.65;6.53;;;10.60;83.80;;;;;;9182448;19;20006;-66
2023/02/18 00:16:59;;;;;;;25.65;6.50;;;10.60;83.80;;;;;;9180324;19;20018;-66
2023/02/18 00:20:06;;;;;;;24.27;7.18;;;10.60;83.80;;;;;;9178061;19;20006;-65
2023/02/18 00:23:10;;;;;;;27.40;8.98;;;10.60;83.80;;;;;;9181050;19;20019;-67
2023/02/18 00:26:19;;;;;;;27.05;9.70;;;10.50;83.80;;;;;;9180642;19;20416;-66
2023/02/18 00:29:23;;;;;;;27.02;11.55;;;10.50;83.80;;;;;;9181888;19;20389;-65
2023/02/18 00:32:29;;;;;;;30.23;11.52;;;10.50;83.90;;;;;;9181994;19;20018;-67
2023/02/18 00:35:33;;;;;;;26.17;14.18;;;10.50;84.00;;;;;;9180848;19;20034;-66
2023/02/18 00:38:39;;;;;;;34.60;14.40;;;10.50;84.00;;;;;;9181216;19;20014;-66
2023/02/18 00:41:45;;;;;;;;;;;10.40;84.00;;;;;;9181655;19;20029;-66
2023/02/18 00:44:51;;;;;;;41.65;15.73;;;10.50;84.20;;;;;;9181605;19;20426;-66
2023/02/18 00:47:54;;;;;;;38.53;18.05;;;10.50;84.10;;;;;;9180261;19;20014;-68
2023/02/18 00:51:01;;;;;;;38.22;19.10;;;10.50;84.20;;;;;;9181381;19;20025;-67
2023/02/18 00:54:05;;;;;;;42.75;18.35;;;10.40;84.30;;;;;;9181477;19;20023;-66
2023/02/18 00:57:13;;;;;;;41.53;19.60;;;10.40;84.90;;;;;;9177127;19;20081;-67
2023/02/18 01:00:17;;;;;;;47.08;21.85;;;10.50;84.40;;;;;;9179247;19;20010;-67
2023/02/18 01:03:24;;;;;;;41.88;22.33;;;10.50;84.50;;;;;;9181150;19;20014;-67
2023/02/18 01:06:28;;;;;;;41.50;22.75;;;10.50;84.60;;;;;;9180685;19;20014;-67
2023/02/18 01:09:34;;;;;;;57.25;24.02;;;10.50;84.60;;;;;;9180589;19;20007;-67
2023/02/18 01:12:40;;;;;;;51.33;23.50;;;10.50;84.60;;;;;;9177505;19;20029;-67
2023/02/18 01:15:47;;;;;;;47.58;22.85;;;10.50;84.70;;;;;;9178560;19;20384;-67
2023/02/18 01:18:57;;;;;;;55.20;26.27;;;10.50;84.70;;;;;;9175985;19;20022;-65
2023/02/18 01:22:05;;;;;;;54.88;25.10;;;10.50;84.70;;;;;;9180441;19;20037;-67
2023/02/18 01:25:12;;;;;;;46.08;24.33;;;10.50;84.80;;;;;;9179792;19;20011;-67
2023/02/18 01:28:24;;;;;;;47.90;23.95;;;10.50;84.80;;;;;;9180425;19;20491;-65
2023/02/18 01:31:27;;;;;;;51.85;25.15;;;10.50;84.90;;;;;;9178325;19;20026;-67
2023/02/18 01:34:35;;;;;;;53.88;24.15;;;10.50;85.00;;;;;;9180615;19;20011;-67
2023/02/18 01:37:39;;;;;;;56.65;25.60;;;10.50;85.00;;;;;;9177148;19;20034;-67
2023/02/18 01:40:52;;;;;;;50.08;25.88;;;10.50;85.00;;;;;;9180100;19;20059;-65
2023/02/18 01:44:18;;;;;;;55.03;27.08;;;10.50;85.10;;;;;;9180101;19;20033;-67
2023/02/18 01:47:24;;;;;;;58.40;25.77;;;10.50;85.00;;;;;;9179125;19;20013;-67
2023/02/18 01:50:36;;;;;;;63.38;26.52;;;10.50;85.00;;;;;;9179812;19;20019;-67
2023/02/18 01:53:49;;;;;;;63.90;26.25;;;10.50;85.00;;;;;;9176578;19;20011;-66
2023/02/18 01:56:58;;;;;;;54.60;25.45;;;10.50;85.10;;;;;;9175954;19;20014;-66
2023/02/18 02:00:11;;;;;;;55.88;26.55;;;10.50;85.20;;;;;;9177391;19;20015;-67
2023/02/18 02:03:23;;;;;;;62.95;26.98;;;10.50;85.20;;;;;;9179159;19;20030;-66
2023/02/18 02:06:29;;;;;;;68.55;24.63;;;10.50;85.20;;;;;;9178165;19;20017;-66
2023/02/18 02:09:35;;;;;;;63.85;27.25;;;10.50;85.20;;;;;;9179187;19;20014;-67
2023/02/18 02:12:57;;;;;;;56.75;24.25;;;10.50;85.30;;;;;;9178903;19;20018;-67
2023/02/18 02:16:12;;;;;;;64.60;25.20;;;10.50;85.40;;;;;;9175430;19;20014;-66
2023/02/18 02:19:44;;;;;;;56.17;25.23;;;10.60;85.50;;;;;;9172902;19;20432;-65
2023/02/18 02:23:08;;;;;;;60.83;27.08;;;10.60;86.20;;;;;;9178808;19;20357;-67
2023/02/18 02:26:37;;;;;;;67.38;24.92;;;10.60;85.50;;;;;;9178156;19;20021;-67
2023/02/18 02:30:08;;;;;;;67.00;26.58;;;10.60;85.60;;;;;;9177823;19;20110;-65
2023/02/18 02:33:49;;;;;;;71.97;26.50;;;10.60;85.70;;;;;;9178077;19;20018;-67
2023/02/18 02:37:00;;;;;;;62.80;26.20;;;10.60;85.70;;;;;;9175646;19;20755;-68
2023/02/18 02:40:21;;;;;;;65.80;25.83;;;10.60;85.60;;;;;;9178193;19;20483;-66
2023/02/18 02:43:32;;;;;;;66.75;25.15;;;10.60;85.70;;;;;;9174526;19;20025;-66
2023/02/18 02:46:44;;;;;;;65.90;25.40;;;10.60;85.70;;;;;;9177362;19;20034;-65
2023/02/18 02:49:53;;;;;;;60.20;23.58;;;10.70;85.80;;;;;;9176294;19;20471;-67
2023/02/18 02:53:12;;;;;;;58.33;24.25;;;10.70;85.80;;;;;;9175844;19;20015;-66
2023/02/18 02:56:17;;;;;;;68.40;23.42;;;10.70;85.80;;;;;;9173310;19;20026;-65
2023/02/18 02:59:27;;;;;;;65.50;25.45;;;10.70;85.80;;;;;;9177139;19;20011;-65
2023/02/18 03:02:41;;;;;;;61.80;24.55;;;10.70;85.90;;;;;;9175170;19;20023;-67
2023/02/18 03:06:04;;;;;;;61.78;24.05;;;10.70;85.90;;;;;;9175902;19;20018;-67
2023/02/18 03:09:17;;;;;;;60.67;23.88;;;10.70;85.90;;;;;;9175208;19;20094;-67
2023/02/18 03:12:30;;;;;;;63.95;24.08;;;10.80;85.90;;;;;;9173466;19;20025;-67
2023/02/18 03:15:40;;;;;;;65.03;24.67;;;10.80;86.00;;;;;;9173477;19;20014;-67
2023/02/18 03:18:52;;;;;;;55.25;25.00;;;10.80;86.00;;;;;;9172393;19;20695;-67
2023/02/18 03:22:00;;;;;;;58.90;22.48;;;10.70;85.90;;;;;;9175328;19;20014;-67
2023/02/18 03:25:11;;;;;;;60.92;23.95;;;10.80;86.00;;;;;;9174387;19;20438;-66
2023/02/18 03:28:20;;;;;;;58.20;23.10;;;10.80;86.10;;;;;;9174809;19;20054;-67
2023/02/18 03:31:29;;;;;;;60.72;21.92;;;10.80;86.00;;;;;;9176170;19;20463;-67
2023/02/18 03:34:39;;;;;;;54.90;21.65;;;10.80;86.00;;;;;;9175458;19;20054;-67
2023/02/18 03:37:49;;;;;;;57.45;21.33;;;10.80;86.10;;;;;;9172594;19;20493;-67
2023/02/18 03:40:55;;;;;;;57.70;22.10;;;10.80;86.00;;;;;;9175405;19;20021;-67
2023/02/18 03:44:03;;;;;;;55.03;22.40;;;10.80;86.10;;;;;;9175473;19;20010;-65
2023/02/18 03:47:07;;;;;;;52.70;20.33;;;10.80;86.00;;;;;;9174587;19;20022;-66
2023/02/18 03:50:13;;;;;;;57.40;20.50;;;10.80;86.10;;;;;;9172303;19;20018;-68
2023/02/18 03:53:17;;;;;;;45.35;18.90;;;10.80;86.10;;;;;;9172845;19;20067;-65
2023/02/18 03:56:25;;;;;;;45.90;17.63;;;10.80;86.10;;;;;;9173338;19;20021;-67
2023/02/18 03:59:28;;;;;;;40.47;16.33;;;10.80;86.10;;;;;;9174908;19;20022;-65
2023/02/18 04:02:35;;;;;;;40.95;17.23;;;10.80;86.10;;;;;;9173975;19;20037;-67
2023/02/18 04:05:38;;;;;;;37.70;15.45;;;10.80;86.20;;;;;;9173949;19;20023;-67
2023/02/18 04:08:45;;;;;;;41.15;17.95;;;10.80;86.20;;;;;;9174589;19;20010;-67
2023/02/18 04:11:51;;;;;;;39.85;17.13;;;10.80;86.20;;;;;;9171581;19;20527;-67
2023/02/18 04:14:56;;;;;;;47.90;18.48;;;10.80;86.30;;;;;;9174473;19;20518;-67
2023/02/18 04:18:00;;;;;;;48.45;18.83;;;10.80;86.30;;;;;;9172973;19;20021;-67
2023/02/18 04:21:07;;;;;;;43.72;18.80;;;10.80;86.30;;;;;;9178156;19;20010;-67
2023/02/18 04:24:10;;;;;;;44.08;18.83;;;10.80;86.30;;;;;;9183101;19;20046;-67
2023/02/18 04:27:18;;;;;;;50.05;17.40;;;10.70;86.30;;;;;;9181902;19;20014;-67
2023/02/18 04:30:22;;;;;;;51.60;18.70;;;10.70;86.30;;;;;;9183295;19;20045;-65
2023/02/18 04:33:28;;;;;;;52.65;20.38;;;10.80;86.40;;;;;;9181258;19;20026;-68
2023/02/18 04:36:33;;;;;;;53.75;20.77;;;10.80;86.40;;;;;;9180500;19;20034;-67
2023/02/18 04:39:39;;;;;;;49.67;20.55;;;10.80;86.50;;;;;;9181414;19;20006;-65
2023/02/18 04:42:44;;;;;;;46.75;19.63;;;10.80;86.50;;;;;;9181648;19;20025;-65
2023/02/18 04:45:51;;;;;;;63.60;21.58;;;10.80;86.50;;;;;;9180151;19;20597;-67
2023/02/18 04:48:55;;;;;;;52.03;19.70;;;10.80;86.60;;;;;;9181764;19;20487;-66
2023/02/18 04:52:00;;;;;;;52.45;20.25;;;10.80;86.60;;;;;;9181538;19;20029;-67
2023/02/18 04:55:05;;;;;;;47.60;19.58;;;10.80;86.60;;;;;;9181889;19;20048;-67
2023/02/18 04:58:13;;;;;;;50.55;18.70;;;10.80;86.70;;;;;;9179530;19;20018;-66
2023/02/18 05:01:16;;;;;;;44.10;19.05;;;10.80;86.70;;;;;;9180671;19;20014;-67
2023/02/18 05:04:22;;;;;;;38.05;16.77;;;10.80;86.70;;;;;;9180475;19;20136;-67
2023/02/18 05:07:29;;;;;;;;;;;10.80;86.80;;;;;;9180120;19;20490;-67
2023/02/18 05:10:36;;;;;;;39.72;15.63;;;10.80;86.80;;;;;;9177978;19;19919;-67
2023/02/18 05:13:41;;;;;;;36.70;15.90;;;10.80;86.60;;;;;;9180530;19;20041;-67
2023/02/18 05:16:47;;;;;;;39.55;14.80;;;10.80;86.80;;;;;;9179898;19;20021;-67
2023/02/18 05:19:51;;;;;;;;;;;10.90;86.90;;;;;;9177226;19;20657;-67
2023/02/18 05:22:57;;;;;;;28.58;13.23;;;10.90;86.90;;;;;;9180191;19;20036;-67
2023/02/18 05:26:00;;;;;;;;;;;10.90;86.70;;;;;;9181164;19;20563;-68
2023/02/18 05:29:08;;;;;;;29.35;11.68;;;10.90;86.80;;;;;;9180198;19;19919;-67
2023/02/18 05:32:12;;;;;;;29.13;14.02;;;10.90;86.70;;;;;;9180195;19;20085;-67
2023/02/18 05:35:18;;;;;;;28.48;13.40;;;10.90;86.80;;;;;;9180113;19;20011;-67
2023/02/18 05:38:22;;;;;;;;;;;10.90;86.90;;;;;;9177581;19;20025;-67
2023/02/18 05:41:28;;;;;;;25.52;10.70;;;11.00;87.00;;;;;;9178437;19;20622;-67
2023/02/18 05:44:33;;;;;;;;;;;11.00;87.00;;;;;;9181230;19;20089;-67
2023/02/18 05:47:39;;;;;;;24.52;10.13;;;11.00;87.00;;;;;;9179667;19;19918;-67
2023/02/18 05:50:43;;;;;;;;;;;11.00;86.90;;;;;;9179901;19;20018;-67
2023/02/18 05:53:49;;;;;;;21.52;8.77;;;11.00;87.00;;;;;;9176359;19;19921;-67
2023/02/18 05:56:52;;;;;;;;;;;11.10;87.00;;;;;;9177764;19;20022;-67
2023/02/18 06:00:00;;;;;;;16.00;6.65;;;11.10;87.10;;;;;;9179050;19;19921;-67
2023/02/18 06:03:04;;;;;;;14.82;6.72;;;11.10;87.00;;;;;;9179348;19;20472;-67
2023/02/18 06:06:11;;;;;;;13.57;6.53;;;11.10;87.20;;;;;;9178595;19;20018;-67
2023/02/18 06:09:15;;;;;;;16.40;7.25;;;11.10;87.20;;;;;;9179531;19;20507;-67
2023/02/18 06:12:21;;;;;;;11.85;6.10;;;11.10;87.30;;;;;;9174650;19;20082;-67
2023/02/18 06:15:26;;;;;;;;;;;11.20;87.40;;;;;;9179466;19;20018;-67
2023/02/18 06:18:32;;;;;;;9.73;4.95;;;11.20;87.40;;;;;;9173882;19;19919;-67
2023/02/18 06:21:36;;;;;;;;;;;11.20;87.20;;;;;;9175870;19;20022;-67
2023/02/18 06:24:42;;;;;;;7.15;3.53;;;11.20;87.30;;;;;;9170363;19;19918;-67
2023/02/18 06:27:46;;;;;;;11.82;3.78;;;11.20;87.20;;;;;;9171870;19;20369;-67
2023/02/18 06:30:54;;;;;;;5.32;3.05;;;11.20;87.30;;;;;;9177515;19;20019;-67
2023/02/18 06:33:58;;;;;;;5.15;3.05;;;11.20;87.40;;;;;;9178031;19;20015;-66
2023/02/18 06:37:04;;;;;;;5.45;3.10;;;11.20;87.50;;;;;;9175934;19;20015;-66
2023/02/18 06:40:08;;;;;;;;;;;11.30;87.60;;;;;;9176910;19;20015;-66
2023/02/18 06:43:14;;;;;;;5.57;3.05;;;11.30;87.60;;;;;;9177890;19;19919;-67
2023/02/18 06:46:20;;;;;;;3.13;2.38;;;11.30;87.40;;;;;;9177130;19;20037;-67
2023/02/18 06:49:26;;;;;;;4.72;2.80;;;11.30;87.60;;;;;;9177104;19;20018;-67
2023/02/18 06:52:32;;;;;;;;;;;11.30;87.60;;;;;;9176581;19;20021;-67
2023/02/18 06:55:38;;;;;;;3.20;2.58;;;11.30;87.60;;;;;;9177857;19;19919;-66
2023/02/18 06:58:42;;;;;;;4.50;2.97;;;11.30;87.50;;;;;;9177311;19;20102;-67
2023/02/18 07:01:50;;;;;;;5.50;3.17;;;11.30;87.70;;;;;;9178328;19;20021;-67
2023/02/18 07:04:54;;;;;;;4.43;3.13;;;11.30;87.70;;;;;;9177167;19;20064;-67
2023/02/18 07:08:00;;;;;;;3.55;2.65;;;11.30;87.80;;;;;;9176851;19;20015;-67
2023/02/18 07:11:04;;;;;;;;;;;11.30;87.80;;;;;;9175689;19;20044;-65
2023/02/18 07:14:10;;;;;;;3.25;2.53;;;11.30;87.80;;;;;;9176148;19;19919;-66
2023/02/18 07:17:15;;;;;;;5.35;2.83;;;11.30;87.70;;;;;;9174565;19;20349;-67
2023/02/18 07:20:22;;;;;;;4.55;2.90;;;11.30;87.80;;;;;;9172735;19;20030;-67
2023/02/18 07:23:26;;;;;;;4.55;2.67;;;11.30;87.80;;;;;;9176522;19;20019;-67
2023/02/18 07:26:32;;;;;;;5.32;3.33;;;11.30;87.90;;;;;;9176863;19;20018;-66
2023/02/18 07:29:36;;;;;;;;;;;11.30;87.90;;;;;;9177282;19;20086;-67
2023/02/18 07:32:44;;;;;;;6.45;3.45;;;11.30;87.90;;;;;;9175965;19;19918;-67
2023/02/18 07:35:47;;;;;;;5.93;4.03;;;11.30;87.80;;;;;;9173267;19;20038;-66
2023/02/18 07:38:53;;;;;;;7.70;4.82;;;11.30;87.90;;;;;;9175659;19;20010;-67
2023/02/18 07:41:57;;;;;;;9.52;5.53;;;11.30;87.90;;;;;;9175340;19;20050;-67
2023/02/18 07:45:03;;;;;;;13.82;7.03;;;11.30;88.00;;;;;;9175011;19;20019;-67
2023/02/18 07:48:09;;;;;;;11.43;7.40;;;11.40;88.10;;;;;;9174519;19;20014;-66
2023/02/18 07:51:15;;;;;;;12.35;7.10;;;11.30;88.10;;;;;;9175474;19;20025;-65
2023/02/18 07:54:19;;;;;;;;;;;11.30;88.10;;;;;;9181409;19;20356;-66
2023/02/18 07:57:25;;;;;;;15.88;8.90;;;11.30;88.10;;;;;;9181947;19;19955;-67
2023/02/18 08:00:29;;;;;;;15.40;8.95;;;11.30;88.00;;;;;;9182336;19;20015;-67
2023/02/18 08:03:38;;;;;;;18.35;9.13;;;11.30;88.00;;;;;;9182909;19;20014;-67
2023/02/18 08:06:44;;;;;;;15.27;10.00;;;11.30;88.10;;;;;;9184206;19;20014;-67
2023/02/18 08:09:51;;;;;;;14.75;9.30;;;11.30;88.20;;;;;;9182778;19;20018;-67
2023/02/18 08:12:55;;;;;;;18.75;9.45;;;11.30;88.30;;;;;;9183113;19;20011;-65
2023/02/18 08:16:01;;;;;;;19.77;10.00;;;11.30;88.20;;;;;;9180918;19;20078;-67
2023/02/18 08:19:07;;;;;;;17.17;9.30;;;11.30;88.20;;;;;;9178226;19;20590;-65
2023/02/18 08:22:13;;;;;;;15.10;8.20;;;11.40;88.30;;;;;;9183182;19;20010;-67
2023/02/18 08:25:17;;;;;;;13.10;8.10;;;11.30;88.20;;;;;;9182245;19;20018;-66
2023/02/18 08:28:35;;;;;;;15.02;6.70;;;11.40;88.30;;;;;;9181886;19;20015;-67
2023/02/18 08:31:38;;;;;;;;;;;11.40;88.30;;;;;;9181306;19;20027;-67
2023/02/18 08:34:46;;;;;;;13.73;6.43;;;11.40;88.30;;;;;;9182133;19;20038;-67
2023/02/18 08:37:51;;;;;;;11.57;4.82;;;11.40;88.10;;;;;;9179255;19;20033;-67
2023/02/18 08:41:03;;;;;;;9.30;4.47;;;11.40;88.80;;;;;;9180925;19;20480;-65
2023/02/18 08:44:07;;;;;;;7.90;4.63;;;11.40;88.30;;;;;;9181496;19;20026;-67
2023/02/18 08:47:13;;;;;;;7.20;4.72;;;11.40;88.30;;;;;;9181654;19;20511;-66
2023/02/18 08:50:39;;;;;;;7.47;5.13;;;11.30;88.30;;;;;;9182774;19;20022;-67
2023/02/18 08:53:46;;;;;;;8.27;4.72;;;11.30;88.30;;;;;;9180551;19;20010;-67
2023/02/18 08:56:50;;;;;;;7.45;4.70;;;11.40;88.30;;;;;;9180798;19;20014;-67
2023/02/18 08:59:56;;;;;;;10.38;5.47;;;11.30;88.30;;;;;;9179084;19;20507;-67
2023/02/18 09:02:59;;;;;;;;;;;11.40;88.40;;;;;;9181667;19;20010;-67
2023/02/18 09:06:08;;;;;;;10.98;5.45;;;11.40;88.40;;;;;;9180244;19;19918;-67
2023/02/18 09:09:12;;;;;;;12.52;5.90;;;11.30;88.20;;;;;;9179957;19;20030;-66
2023/02/18 09:12:18;;;;;;;13.30;6.60;;;11.30;88.90;;;;;;9176691;19;20026;-65
2023/02/18 09:15:22;;;;;;;;;;;11.40;88.40;;;;;;9180949;19;20021;-65
2023/02/18 09:18:28;;;;;;;10.38;5.88;;;11.40;88.40;;;;;;9172558;19;20264;-67
2023/02/18 09:21:34;;;;;;;;;;;11.40;88.20;;;;;;9181212;19;20017;-65
2023/02/18 09:24:42;;;;;;;17.17;6.13;;;11.30;88.20;;;;;;9179074;19;19921;-66
2023/02/18 09:27:45;;;;;;;12.48;5.82;;;11.30;88.10;;;;;;9173083;19;20105;-67
2023/02/18 09:30:52;;;;;;;21.45;6.32;;;11.30;88.20;;;;;;9177276;19;20022;-66
2023/02/18 09:33:58;;;;;;;14.30;6.47;;;11.30;88.30;;;;;;9179661;19;20475;-66
2023/02/18 09:37:06;;;;;;;17.00;6.60;;;11.30;88.40;;;;;;9177601;19;20018;-66
2023/02/18 09:40:23;;;;;;;19.67;6.40;;;11.30;88.30;;;;;;9179409;19;20022;-67
2023/02/18 09:43:33;;;;;;;20.17;7.43;;;11.30;88.40;;;;;;9178039;19;20029;-67
2023/02/18 09:46:41;;;;;;;15.80;5.88;;;11.30;88.40;;;;;;9179730;19;20007;-67
2023/02/18 09:49:50;;;;;;;12.13;4.97;;;11.30;88.40;;;;;;9177839;19;20093;-67
2023/02/18 09:52:56;;;;;;;9.70;4.45;;;11.30;88.40;;;;;;9176018;19;20056;-66
2023/02/18 09:56:03;;;;;;;15.85;4.60;;;11.30;88.40;;;;;;9174507;19;20078;-67
2023/02/18 09:59:11;;;;;;;11.45;4.13;;;11.30;88.40;;;;;;9170961;19;20018;-68
2023/02/18 10:02:19;;;;;;;10.85;3.95;;;11.30;88.40;;;;;;9174184;19;20018;-67
2023/02/18 10:05:24;;;;;;;10.32;3.85;;;11.20;88.40;;;;;;9173921;19;20015;-67
2023/02/18 10:08:36;;;;;;;9.30;4.47;;;11.20;88.40;;;;;;9176646;19;20019;-65
2023/02/18 10:11:43;;;;;;;18.40;3.97;;;11.20;88.40;;;;;;9175740;19;20027;-66
2023/02/18 10:14:51;;;;;;;11.85;3.92;;;11.20;88.40;;;;;;9176011;19;20014;-66
2023/02/18 10:17:57;;;;;;;27.58;7.18;;;11.20;88.40;;;;;;9176134;19;20018;-66
2023/02/18 10:21:08;;;;;;;19.00;5.65;;;11.20;88.40;;;;;;9174488;19;20025;-66
2023/02/18 10:24:26;;;;;;;9.15;3.08;;;11.10;88.40;;;;;;9175851;19;20363;-68
2023/02/18 10:27:34;;;;;;;11.75;3.80;;;11.10;88.50;;;;;;9178576;19;20783;-68
2023/02/18 10:30:43;;;;;;;13.80;3.67;;;11.10;88.40;;;;;;9179121;19;20423;-66
2023/02/18 10:33:58;;;;;;;16.23;3.65;;;11.10;88.50;;;;;;9178873;19;20010;-66
2023/02/18 10:37:09;;;;;;;9.43;3.80;;;11.00;88.40;;;;;;9175513;19;20029;-67
2023/02/18 10:40:22;;;;;;;5.78;3.30;;;11.00;88.50;;;;;;9178131;19;20085;-67
2023/02/18 10:43:35;;;;;;;13.25;3.72;;;11.00;88.50;;;;;;9179014;19;20014;-68
2023/02/18 10:46:55;;;;;;;16.27;3.55;;;11.00;88.60;;;;;;9177353;19;20014;-67
2023/02/18 10:50:01;;;;;;;12.00;2.65;;;11.00;88.60;;;;;;9178150;19;20391;-67
2023/02/18 10:53:14;;;;;;;15.63;3.97;;;11.00;88.60;;;;;;9177757;19;20015;-67
2023/02/18 10:56:38;;;;;;;11.00;3.47;;;11.00;88.60;;;;;;9176103;19;20022;-67
2023/02/18 10:59:56;;;;;;;18.80;3.00;;;11.00;88.70;;;;;;9177712;19;20026;-67
2023/02/18 11:03:17;;;;;;;11.77;3.72;;;10.90;88.60;;;;;;9176746;19;20034;-67
2023/02/18 11:06:28;;;;;;;9.23;3.05;;;10.90;88.70;;;;;;9177645;19;20022;-67
2023/02/18 11:09:40;;;;;;;12.95;3.30;;;10.90;88.70;;;;;;9177353;19;20017;-67
2023/02/18 11:12:51;;;;;;;10.93;3.15;;;10.90;88.70;;;;;;9177827;19;20360;-67
2023/02/18 11:16:03;;;;;;;12.77;2.75;;;10.90;88.70;;;;;;9176840;19;20593;-67
2023/02/18 11:19:33;;;;;;;13.47;3.80;;;10.90;88.70;;;;;;9168272;19;20042;-67
2023/02/18 11:22:39;;;;;;;19.75;3.80;;;10.90;88.90;;;;;;9176458;19;20410;-67
2023/02/18 11:25:59;;;;;;;14.52;3.92;;;11.00;88.90;;;;;;9172112;19;20019;-67
2023/02/18 11:29:10;;;;;;;19.23;5.47;;;11.00;89.00;;;;;;9182753;19;20090;-67
2023/02/18 11:32:16;;;;;;;17.10;3.75;;;11.00;89.00;;;;;;9183239;19;20025;-66
2023/02/18 11:35:23;;;;;;;17.58;4.15;;;11.10;89.10;;;;;;9179132;19;20015;-67
2023/02/18 11:38:35;;;;;;;16.73;3.63;;;11.10;89.00;;;;;;9177505;19;20368;-68
2023/02/18 11:41:43;;;;;;;18.63;5.32;;;11.10;89.00;;;;;;9176792;19;20027;-68
2023/02/18 11:44:57;;;;;;;20.48;4.47;;;11.20;89.10;;;;;;9176408;19;20017;-67
2023/02/18 11:48:02;;;;;;;16.23;5.22;;;11.20;89.10;;;;;;9178002;19;20018;-67
2023/02/18 11:51:17;;;;;;;14.90;3.50;;;11.30;89.10;;;;;;9178220;19;20488;-67
2023/02/18 11:54:28;;;;;;;18.83;3.78;;;11.30;89.10;;;;;;9177230;19;20014;-67
2023/02/18 11:57:37;;;;;;;15.70;4.13;;;11.30;89.00;;;;;;9176040;19;20029;-66
2023/02/18 12:00:45;;;;;;;11.88;3.22;;;11.30;88.90;;;;;;9178199;19;20026;-67
2023/02/18 12:03:57;;;;;;;22.92;3.80;;;11.30;89.00;;;;;;9177493;19;20014;-68
2023/02/18 12:07:14;;;;;;;17.55;4.03;;;11.30;89.00;;;;;;9176678;19;20340;-67
2023/02/18 12:10:26;;;;;;;20.15;4.07;;;11.40;89.00;;;;;;9178846;19;20018;-66
2023/02/18 12:13:35;;;;;;;12.07;3.33;;;11.40;88.90;;;;;;9181599;19;20420;-67
2023/02/18 12:16:55;;;;;;;15.00;3.47;;;11.40;89.00;;;;;;9180803;19;20019;-65
2023/02/18 12:20:19;;;;;;;22.77;3.88;;;11.40;88.90;;;;;;9178959;19;20018;-67
2023/02/18 12:23:33;;;;;;;21.55;3.72;;;11.40;89.00;;;;;;9182692;19;20494;-68
2023/02/18 12:26:47;;;;;;;24.00;2.95;;;11.40;88.90;;;;;;9182437;19;20023;-67
2023/02/18 12:30:29;;;;;;;20.92;3.00;;;11.40;88.90;;;;;;9182489;19;20456;-67
2023/02/18 12:33:47;;;;;;;22.38;3.97;;;11.40;89.00;;;;;;9177250;19;20018;-66
2023/02/18 12:37:03;;;;;;;15.35;3.05;;;11.40;89.00;;;;;;9177748;19;20022;-67
2023/02/18 12:40:36;;;;;;;18.73;4.05;;;11.40;89.00;;;;;;9176250;19;20515;-67
2023/02/18 12:43:57;;;;;;;12.38;3.10;;;11.50;89.10;;;;;;9177650;19;20118;-68
2023/02/18 12:47:29;;;;;;;10.95;2.35;;;11.50;89.10;;;;;;9179803;19;20554;-67
2023/02/18 12:50:58;;;;;;;19.38;2.55;;;11.50;89.10;;;;;;9182305;19;20038;-68
2023/02/18 12:54:43;;;;;;;15.63;3.28;;;11.50;89.00;;;;;;9181500;19;20034;-67
2023/02/18 12:57:57;;;;;;;12.15;2.28;;;11.60;89.20;;;;;;9175722;19;20435;-66
2023/02/18 13:01:26;;;;;;;15.90;3.15;;;11.60;89.00;;;;;;9181890;19;20018;-67
2023/02/18 13:04:48;;;;;;;8.50;2.20;;;11.60;89.10;;;;;;9181427;19;20022;-67
2023/02/18 13:08:11;;;;;;;11.55;3.38;;;11.70;89.10;;;;;;9181099;19;20101;-67
2023/02/18 13:11:28;;;;;;;15.75;2.55;;;11.70;89.10;;;;;;9178813;19;20014;-67
2023/02/18 13:14:35;;;;;;;11.98;2.80;;;11.80;89.20;;;;;;9181735;19;20015;-67
2023/02/18 13:17:43;;;;;;;15.63;2.78;;;11.80;89.00;;;;;;9180280;19;20030;-67
2023/02/18 13:20:50;;;;;;;19.92;4.40;;;11.80;89.00;;;;;;9176294;19;20349;-67
2023/02/18 13:24:02;;;;;;;13.27;3.05;;;11.90;89.00;;;;;;9181147;19;20026;-67
2023/02/18 13:27:15;;;;;;;12.48;2.60;;;11.90;88.90;;;;;;9177143;19;20516;-65
2023/02/18 13:30:29;;;;;;;17.00;3.38;;;12.00;88.90;;;;;;9181000;19;20025;-67
2023/02/18 13:33:40;;;;;;;13.82;3.40;;;12.00;88.80;;;;;;9178529;19;20019;-68
2023/02/18 13:36:55;;;;;;;14.85;3.72;;;12.00;88.70;;;;;;9180178;19;20014;-67
2023/02/18 13:40:02;;;;;;;11.53;3.03;;;12.00;88.70;;;;;;9180854;19;20018;-68
2023/02/18 13:43:29;;;;;;;12.35;2.65;;;12.00;88.60;;;;;;9179670;19;20472;-68
2023/02/18 13:46:49;;;;;;;12.75;4.00;;;12.10;88.60;;;;;;9179813;19;20023;-65
2023/02/18 13:49:56;;;;;;;7.28;1.83;;;12.10;88.50;;;;;;9177049;19;20014;-67
2023/02/18 13:53:16;;;;;;;9.45;2.40;;;12.10;88.50;;;;;;9180308;19;20014;-67
2023/02/18 13:56:30;;;;;;;10.73;2.65;;;12.10;88.40;;;;;;9179844;19;20364;-67
2023/02/18 13:59:38;;;;;;;11.07;2.65;;;12.10;88.40;;;;;;9176217;19;20022;-67
2023/02/18 14:02:58;;;;;;;19.85;6.07;;;12.20;88.40;;;;;;9179702;19;20010;-68
2023/02/18 14:06:03;;;;;;;8.55;2.65;;;12.10;88.30;;;;;;9179421;19;20025;-67
2023/02/18 14:09:37;;;;;;;15.45;2.63;;;12.20;88.30;;;;;;9176760;19;20010;-67
2023/02/18 14:13:02;;;;;;;8.80;1.80;;;12.20;88.30;;;;;;9179492;19;20018;-67
2023/02/18 14:16:09;;;;;;;10.05;2.55;;;12.20;88.30;;;;;;9179504;19;20015;-67
2023/02/18 14:19:29;;;;;;;10.50;2.25;;;12.20;88.20;;;;;;9171779;19;20024;-67
2023/02/18 14:22:45;;;;;;;10.10;2.78;;;12.20;88.10;;;;;;9178880;19;20369;-67
2023/02/18 14:25:56;;;;;;;9.90;2.35;;;12.20;88.20;;;;;;9178191;19;20037;-68
2023/02/18 14:29:08;;;;;;;10.05;2.38;;;12.20;88.10;;;;;;9179059;19;20357;-68
2023/02/18 14:32:14;;;;;;;11.27;2.80;;;12.20;88.00;;;;;;9177875;19;20488;-67
2023/02/18 14:35:28;;;;;;;6.43;2.15;;;12.20;88.00;;;;;;9178489;19;20026;-67
2023/02/18 14:38:42;;;;;;;14.70;2.53;;;12.20;87.90;;;;;;9176358;19;20011;-67
2023/02/18 14:41:56;;;;;;;6.32;2.35;;;12.20;87.90;;;;;;9176573;19;20022;-66
2023/02/18 14:45:18;;;;;;;9.07;2.05;;;12.20;87.90;;;;;;9177835;19;20032;-67
2023/02/18 14:48:43;;;;;;;10.88;2.50;;;12.20;87.80;;;;;;9178054;19;20018;-68
2023/02/18 14:51:48;;;;;;;10.70;2.10;;;12.20;87.80;;;;;;9177499;19;20014;-68
2023/02/18 14:54:55;;;;;;;5.88;2.47;;;12.30;87.80;;;;;;9177822;19;20025;-66
2023/02/18 14:58:02;;;;;;;11.27;2.70;;;12.30;87.70;;;;;;9174471;19;20024;-67
2023/02/18 15:01:19;;;;;;;12.02;3.72;;;12.30;87.80;;;;;;9176307;19;20022;-68
2023/02/18 15:04:24;;;;;;;14.38;3.38;;;12.30;87.60;;;;;;9176072;19;20324;-67
2023/02/18 15:07:30;;;;;;;11.55;2.70;;;12.30;87.60;;;;;;9177472;19;20015;-67
2023/02/18 15:10:39;;;;;;;9.85;2.65;;;12.30;87.60;;;;;;9176415;19;20015;-67
2023/02/18 15:13:47;;;;;;;15.43;3.67;;;12.30;87.50;;;;;;9177100;19;20021;-67
2023/02/18 15:16:53;;;;;;;6.97;1.83;;;12.30;87.50;;;;;;9177430;19;20018;-68
2023/02/18 15:20:05;;;;;;;9.95;2.17;;;12.30;87.40;;;;;;9168603;19;20019;-65
2023/02/18 15:23:12;;;;;;;11.55;2.13;;;12.30;87.40;;;;;;9176550;19;20026;-68
2023/02/18 15:26:19;;;;;;;12.65;2.53;;;12.40;87.40;;;;;;9174538;19;20024;-67
2023/02/18 15:29:25;;;;;;;16.13;2.80;;;12.30;87.30;;;;;;9175780;19;20102;-68
2023/02/18 15:32:34;;;;;;;12.82;2.50;;;12.40;87.30;;;;;;9176258;19;20404;-67
2023/02/18 15:35:42;;;;;;;12.35;2.38;;;12.40;87.20;;;;;;9176232;19;20023;-67
2023/02/18 15:38:49;;;;;;;14.68;1.85;;;12.30;87.20;;;;;;9173987;19;20025;-67
2023/02/18 15:41:56;;;;;;;11.95;2.28;;;12.30;87.10;;;;;;9175671;19;20092;-68
2023/02/18 15:45:05;;;;;;;10.73;2.13;;;12.40;87.10;;;;;;9175700;19;20018;-67
2023/02/18 15:48:24;;;;;;;7.63;2.40;;;12.40;87.00;;;;;;9175397;19;20021;-67
2023/02/18 15:51:32;;;;;;;10.57;2.28;;;12.30;87.00;;;;;;9175332;19;20483;-67
2023/02/18 15:54:41;;;;;;;5.30;1.77;;;12.30;87.60;;;;;;9175469;19;20018;-68
2023/02/18 15:57:47;;;;;;;11.85;2.15;;;12.30;86.90;;;;;;9172811;19;20365;-68
2023/02/18 16:00:53;;;;;;;13.60;1.70;;;12.30;86.90;;;;;;9172915;19;20645;-68
2023/02/18 16:04:01;;;;;;;9.88;1.90;;;12.30;86.90;;;;;;9175486;19;20011;-68
2023/02/18 16:07:19;;;;;;;11.23;2.20;;;12.30;86.90;;;;;;9175496;19;20038;-67
2023/02/18 16:10:36;;;;;;;8.50;1.58;;;12.20;86.80;;;;;;9173669;19;20029;-67
2023/02/18 16:13:48;;;;;;;13.68;2.22;;;12.20;86.70;;;;;;9175019;19;20022;-68
2023/02/18 16:17:09;;;;;;;11.23;2.92;;;12.20;86.70;;;;;;9183230;19;20011;-68
2023/02/18 16:20:26;;;;;;;13.65;2.20;;;12.20;86.70;;;;;;9176140;19;20024;-66